Terminal Aerodrome Forecast
Issued by NWS Knoxville/Tri Cities, TN

Home | Current Version | Previous Version | Text Only | Print | Product List | Glossary On
Versions: 1 2 3 4 5 6 7 8 9 10 11 12 13 14 15 16 17 18 19 20 21 22 23 24 25
000
FTUS44 KMRX 191722
TAFTRI
TAF
KTRI 191722Z 1918/2018 25004KT P6SM SCT040 SCT250
     FM200100 00000KT P6SM SCT250
     FM200800 00000KT 2SM BR SCT250
     FM201300 00000KT 4SM BR FEW250
     FM201400 00000KT P6SM SKC=

USA.gov is the U.S. government's official web portal to all federal, state and local government web resources and services.